createdAt,value
2018-08-11T00:00:28.264Z,2.93
2018-08-11T00:02:57.516Z,3.27
2018-08-11T00:05:27.431Z,3.00
2018-08-11T00:07:57.446Z,2.80
2018-08-11T00:10:27.293Z,3.13
2018-08-11T00:12:56.571Z,2.80
2018-08-11T00:15:25.576Z,2.80
2018-08-11T00:17:55.039Z,3.57
2018-08-11T00:20:26.290Z,2.83
2018-08-11T00:22:55.262Z,3.37
2018-08-11T00:25:24.724Z,2.70
2018-08-11T00:27:54.545Z,2.93
2018-08-11T00:30:24.466Z,2.87
2018-08-11T00:32:54.270Z,3.20
2018-08-11T00:35:24.014Z,3.13
2018-08-11T00:37:53.045Z,3.17
2018-08-11T00:40:21.728Z,3.13
2018-08-11T00:42:52.079Z,2.73
2018-08-11T00:45:21.782Z,3.00
2018-08-11T00:47:50.845Z,2.97
2018-08-11T00:50:30.278Z,2.73
2018-08-11T00:52:59.468Z,3.10
2018-08-11T00:55:29.527Z,3.17
2018-08-11T00:57:59.141Z,2.87
2018-08-11T01:00:28.336Z,2.83
2018-08-11T01:02:58.057Z,2.60
2018-08-11T01:05:27.390Z,3.17
2018-08-11T01:07:57.719Z,3.27
2018-08-11T01:10:27.293Z,2.93
2018-08-11T01:12:57.317Z,3.17
2018-08-11T01:15:27.506Z,3.30
2018-08-11T01:17:57.293Z,3.87
2018-08-11T01:20:27.983Z,3.17
2018-08-11T01:22:57.117Z,3.43
2018-08-11T01:25:26.444Z,3.20
2018-08-11T01:27:55.244Z,3.43
2018-08-11T01:30:24.446Z,3.20
2018-08-11T01:32:53.794Z,3.30
2018-08-11T01:35:22.498Z,3.30
2018-08-11T01:39:21.261Z,2.90
2018-08-11T01:41:51.858Z,3.63
2018-08-11T01:44:21.336Z,3.27
2018-08-11T01:46:51.127Z,2.97
2018-08-11T01:49:20.561Z,3.20
2018-08-11T01:51:50.088Z,3.47
2018-08-11T01:54:19.658Z,4.00
2018-08-11T01:56:49.218Z,3.60
2018-08-11T01:59:18.873Z,2.83
2018-08-11T02:01:48.015Z,3.37
2018-08-11T02:04:17.714Z,3.23
2018-08-11T02:06:47.754Z,3.73
2018-08-11T02:09:17.750Z,3.50
2018-08-11T02:11:48.995Z,3.57
2018-08-11T02:14:18.226Z,3.30
2018-08-11T02:16:47.785Z,3.30
2018-08-11T02:19:17.739Z,3.30
2018-08-11T02:21:48.290Z,3.17
2018-08-11T02:24:19.295Z,3.80
2018-08-11T02:26:48.942Z,2.70
2018-08-11T02:29:23.676Z,3.57
2018-08-11T02:31:54.427Z,3.17
2018-08-11T02:34:24.902Z,3.43
2018-08-11T02:36:54.029Z,3.33
2018-08-11T02:39:23.421Z,3.80
2018-08-11T02:41:53.870Z,3.30
2018-08-11T02:44:23.421Z,3.87
2018-08-11T02:46:53.100Z,3.43
2018-08-11T02:49:22.430Z,3.93
2018-08-11T02:51:52.436Z,3.60
2018-08-11T02:54:21.874Z,3.63
2018-08-11T02:56:51.573Z,3.83
2018-08-11T02:59:23.898Z,5.30
2018-08-11T03:01:57.895Z,3.50
2018-08-11T03:04:27.302Z,4.00
2018-08-11T03:06:58.140Z,3.63
2018-08-11T03:09:31.499Z,3.50
2018-08-11T03:12:01.118Z,4.20
2018-08-11T03:14:31.634Z,3.90
2018-08-11T03:17:00.749Z,3.77
2018-08-11T03:19:31.254Z,4.10
2018-08-11T03:22:00.439Z,4.00
2018-08-11T03:24:30.339Z,4.20
2018-08-11T03:27:00.316Z,4.63
2018-08-11T03:29:30.303Z,8.30
2018-08-11T03:32:00.193Z,3.93
2018-08-11T03:34:29.492Z,3.70
2018-08-11T03:36:59.045Z,5.30
2018-08-11T03:39:29.307Z,4.43
2018-08-11T03:41:59.404Z,3.80
2018-08-11T03:44:29.900Z,3.60
2018-08-11T03:47:00.289Z,5.87
2018-08-11T03:49:29.501Z,18.03
2018-08-11T03:51:58.332Z,5.10
2018-08-11T03:54:27.891Z,4.20
2018-08-11T03:56:57.608Z,4.13
2018-08-11T03:59:26.685Z,4.07
2018-08-11T04:01:56.170Z,3.73
2018-08-11T04:04:25.509Z,4.40
2018-08-11T04:06:55.705Z,3.63
2018-08-11T04:09:26.333Z,4.00
2018-08-11T04:11:55.791Z,4.10
2018-08-11T04:14:25.825Z,3.93
2018-08-11T04:16:54.974Z,3.70
2018-08-11T04:19:24.560Z,4.17
2018-08-11T04:21:53.777Z,4.00
2018-08-11T04:24:22.917Z,4.60
2018-08-11T04:26:52.799Z,4.30
2018-08-11T04:29:22.736Z,4.80
2018-08-11T04:31:51.697Z,5.13
2018-08-11T04:34:21.891Z,4.97
2018-08-11T04:36:50.830Z,4.70
2018-08-11T04:39:20.129Z,5.30
2018-08-11T04:41:49.732Z,4.20
2018-08-11T04:44:18.944Z,5.87
2018-08-11T04:46:48.387Z,5.57
2018-08-11T04:49:19.008Z,5.60
2018-08-11T04:51:49.774Z,5.33
2018-08-11T04:54:19.616Z,4.30
2018-08-11T04:56:50.733Z,5.23
2018-08-11T04:59:19.866Z,5.00
2018-08-11T05:01:49.905Z,4.80
2018-08-11T05:04:19.244Z,7.83
2018-08-11T05:06:48.677Z,5.73
2018-08-11T05:09:18.032Z,4.93
2018-08-11T05:11:48.116Z,4.23
2018-08-11T05:14:18.122Z,5.87
2018-08-11T05:16:48.539Z,3.60
2018-08-11T05:19:17.883Z,3.90
2018-08-11T05:21:47.503Z,4.50
2018-08-11T05:24:17.569Z,4.43
2018-08-11T05:26:46.722Z,3.70
2018-08-11T05:29:17.028Z,3.87
2018-08-11T05:31:47.414Z,4.37
2018-08-11T05:34:16.650Z,3.83
2018-08-11T05:36:46.101Z,4.63
2018-08-11T05:39:15.715Z,5.37
2018-08-11T05:41:44.898Z,3.60
2018-08-11T05:44:15.207Z,3.63
2018-08-11T05:46:44.281Z,4.40
2018-08-11T05:49:13.484Z,3.50
2018-08-11T05:51:42.901Z,3.30
2018-08-11T05:54:12.467Z,4.00
2018-08-11T05:56:42.970Z,3.43
2018-08-11T05:59:12.382Z,3.07
2018-08-11T06:01:42.059Z,4.90
2018-08-11T06:04:11.544Z,3.53
2018-08-11T06:06:41.508Z,6.47
2018-08-11T06:09:11.322Z,3.90
2018-08-11T06:11:42.150Z,4.00
2018-08-11T06:14:12.586Z,3.60
2018-08-11T06:16:41.719Z,3.10
2018-08-11T06:19:11.002Z,3.80
2018-08-11T06:21:41.717Z,9.70
2018-08-11T06:24:11.053Z,3.40
2018-08-11T06:26:41.053Z,3.30
2018-08-11T06:29:10.617Z,4.93
2018-08-11T06:31:41.717Z,4.20
2018-08-11T06:34:12.022Z,3.30
2018-08-11T06:36:41.584Z,3.87
2018-08-11T06:39:16.746Z,4.47
2018-08-11T06:41:45.894Z,3.73
2018-08-11T06:44:15.734Z,3.17
2018-08-11T06:46:45.198Z,2.90
2018-08-11T06:49:14.937Z,3.60
2018-08-11T06:51:44.660Z,2.80
2018-08-11T06:54:14.400Z,2.97
2018-08-11T06:56:43.996Z,2.80
2018-08-11T06:59:13.430Z,3.13
2018-08-11T07:01:42.881Z,2.93
2018-08-11T07:04:11.796Z,3.67
2018-08-11T07:06:41.974Z,3.30
2018-08-11T07:09:12.603Z,2.53
2018-08-11T07:11:42.877Z,2.53
2018-08-11T07:14:12.504Z,3.23
2018-08-11T07:16:42.669Z,2.80
2018-08-11T07:19:12.383Z,3.13
2018-08-11T07:21:41.937Z,3.50
2018-08-11T07:24:11.962Z,4.30
2018-08-11T07:26:41.896Z,3.97
2018-08-11T07:29:11.866Z,2.67
2018-08-11T07:31:41.086Z,2.70
2018-08-11T07:34:11.638Z,2.17
2018-08-11T07:36:42.092Z,2.70
2018-08-11T07:39:11.142Z,5.80
2018-08-11T07:41:40.919Z,3.60
2018-08-11T07:44:10.178Z,3.27
2018-08-11T07:46:39.969Z,3.23
2018-08-11T07:49:09.146Z,3.00
2018-08-11T07:51:38.935Z,3.50
2018-08-11T07:54:08.235Z,2.30
2018-08-11T07:56:38.245Z,2.10
2018-08-11T07:59:07.930Z,2.30
2018-08-11T08:01:39.682Z,1.63
2018-08-11T08:04:10.221Z,2.50
2018-08-11T08:06:41.876Z,2.07
2018-08-11T08:09:13.718Z,1.90
2018-08-11T08:11:43.520Z,2.03
2018-08-11T08:14:15.168Z,2.10
2018-08-11T08:16:45.248Z,2.20
2018-08-11T08:19:14.553Z,2.33
2018-08-11T08:21:45.354Z,2.13
2018-08-11T08:24:14.445Z,2.17
2018-08-11T08:26:44.032Z,2.40
2018-08-11T08:29:13.847Z,1.60
2018-08-11T08:31:43.532Z,2.20
2018-08-11T08:34:13.070Z,1.97
2018-08-11T08:36:43.338Z,1.87
2018-08-11T08:39:13.469Z,2.40
2018-08-11T08:41:43.020Z,2.40
2018-08-11T08:44:12.366Z,2.03
2018-08-11T08:47:45.623Z,1.93
2018-08-11T08:50:15.864Z,2.00
2018-08-11T08:52:45.216Z,1.90
2018-08-11T08:55:14.738Z,2.07
2018-08-11T08:57:43.784Z,1.70
2018-08-11T09:00:13.364Z,2.00
2018-08-11T09:02:44.003Z,1.77
2018-08-11T09:05:13.100Z,1.50
2018-08-11T09:07:42.997Z,2.10
2018-08-11T09:10:13.514Z,2.30
2018-08-11T09:12:43.273Z,1.90
2018-08-11T09:15:12.382Z,1.80
2018-08-11T09:17:41.770Z,1.63
2018-08-11T09:20:11.503Z,1.53
2018-08-11T09:22:41.498Z,1.53
2018-08-11T09:25:11.316Z,1.90
2018-08-11T09:27:40.917Z,1.83
2018-08-11T09:30:10.270Z,1.90
2018-08-11T09:32:39.978Z,2.10
2018-08-11T09:35:09.356Z,1.80
2018-08-11T09:37:38.608Z,3.60
2018-08-11T09:40:07.475Z,4.33
2018-08-11T09:42:37.942Z,2.10
2018-08-11T09:45:07.405Z,1.90
2018-08-11T09:47:37.240Z,1.57
2018-08-11T09:50:07.618Z,1.50
2018-08-11T09:52:37.994Z,1.80
2018-08-11T09:55:08.069Z,1.60
2018-08-11T09:57:38.050Z,1.90
2018-08-11T10:00:08.710Z,1.70
2018-08-11T10:02:38.699Z,1.50
2018-08-11T10:05:08.342Z,1.27
2018-08-11T10:07:38.257Z,1.60
2018-08-11T10:10:07.217Z,1.43
2018-08-11T10:12:37.125Z,1.60
2018-08-11T10:15:06.947Z,1.70
2018-08-11T10:17:36.171Z,1.20
2018-08-11T10:20:06.690Z,1.40
2018-08-11T10:22:36.341Z,1.57
2018-08-11T10:25:05.769Z,1.60
2018-08-11T10:27:35.081Z,1.50
2018-08-11T10:30:06.106Z,1.50
2018-08-11T10:32:35.768Z,2.33
2018-08-11T10:35:05.093Z,1.90
2018-08-11T10:37:34.578Z,1.30
2018-08-11T10:40:04.320Z,1.40
2018-08-11T10:42:34.363Z,1.70
2018-08-11T10:45:03.526Z,1.33
2018-08-11T10:47:32.495Z,1.20
2018-08-11T10:50:02.080Z,1.60
2018-08-11T10:52:32.454Z,1.90
2018-08-11T10:55:02.144Z,1.67
2018-08-11T10:57:31.292Z,1.43
2018-08-11T11:00:01.708Z,1.40
2018-08-11T11:02:32.134Z,1.30
2018-08-11T11:05:02.470Z,1.30
2018-08-11T11:07:32.220Z,1.67
2018-08-11T11:10:03.089Z,1.50
2018-08-11T11:12:32.951Z,1.73
2018-08-11T11:15:02.415Z,1.80
2018-08-11T11:17:32.247Z,1.40
2018-08-11T11:20:02.185Z,1.50
2018-08-11T11:22:31.590Z,1.43
2018-08-11T11:25:01.781Z,1.60
2018-08-11T11:27:31.212Z,1.83
2018-08-11T11:30:01.233Z,2.60
2018-08-11T11:32:31.142Z,5.10
2018-08-11T11:35:00.257Z,1.87
2018-08-11T11:37:29.385Z,2.10
2018-08-11T11:39:59.077Z,1.50
2018-08-11T11:42:28.545Z,2.40
2018-08-11T11:44:58.116Z,2.00
2018-08-11T11:47:28.920Z,1.73
2018-08-11T11:49:59.020Z,2.07
2018-08-11T11:52:28.358Z,1.80
2018-08-11T11:54:58.030Z,2.57
2018-08-11T11:57:27.298Z,1.97
2018-08-11T11:59:57.343Z,2.10
2018-08-11T12:02:26.844Z,2.00
2018-08-11T12:04:56.764Z,2.47
2018-08-11T12:07:26.411Z,2.20
2018-08-11T12:09:55.819Z,2.37
2018-08-11T12:12:25.535Z,2.40
2018-08-11T12:14:55.394Z,2.30
2018-08-11T12:17:25.278Z,1.90
2018-08-11T12:19:54.997Z,2.23
2018-08-11T12:22:24.796Z,2.53
2018-08-11T12:24:54.661Z,2.47
2018-08-11T12:27:24.149Z,2.27
2018-08-11T12:29:53.002Z,2.30
2018-08-11T12:32:22.837Z,2.30
2018-08-11T12:34:52.694Z,1.93
2018-08-11T12:37:22.418Z,4.87
2018-08-11T12:39:53.345Z,2.03
2018-08-11T12:42:24.355Z,2.10
2018-08-11T12:44:56.000Z,2.50
2018-08-11T12:47:25.959Z,3.47
2018-08-11T12:49:54.962Z,2.67
2018-08-11T12:52:24.412Z,2.40
2018-08-11T12:54:57.968Z,2.27
2018-08-11T12:57:31.028Z,2.50
2018-08-11T13:00:01.480Z,2.10
2018-08-11T13:02:31.324Z,2.60
2018-08-11T13:05:01.011Z,2.10
2018-08-11T13:07:31.104Z,2.00
2018-08-11T13:10:00.335Z,1.80
2018-08-11T13:12:30.384Z,5.97
2018-08-11T13:14:59.463Z,4.07
2018-08-11T13:17:29.391Z,2.10
2018-08-11T13:19:59.416Z,2.80
2018-08-11T13:22:30.303Z,2.30
2018-08-11T13:24:58.746Z,2.60
2018-08-11T13:27:27.558Z,2.03
2018-08-11T13:29:56.422Z,1.97
2018-08-11T13:32:25.270Z,2.30
2018-08-11T13:34:54.060Z,2.20
2018-08-11T13:37:22.907Z,2.37
2018-08-11T13:39:52.453Z,2.40
2018-08-11T13:42:21.665Z,5.40
2018-08-11T13:44:50.609Z,2.90
2018-08-11T13:47:19.480Z,2.30
2018-08-11T13:49:48.359Z,2.53
2018-08-11T13:52:17.546Z,2.57
2018-08-11T13:54:46.374Z,2.80
2018-08-11T13:57:15.167Z,2.80
2018-08-11T13:59:43.996Z,2.30
2018-08-11T14:02:12.368Z,2.40
2018-08-11T14:04:41.160Z,2.23
2018-08-11T14:07:10.202Z,2.90
2018-08-11T14:09:38.973Z,2.70
2018-08-11T14:12:07.415Z,2.40
2018-08-11T14:14:36.249Z,2.70
2018-08-11T14:17:05.077Z,2.70
2018-08-11T14:19:33.843Z,2.70
2018-08-11T14:22:02.770Z,2.63
2018-08-11T14:24:31.529Z,3.03
2018-08-11T14:27:00.333Z,3.03
2018-08-11T14:29:29.546Z,2.70
2018-08-11T14:31:58.363Z,3.07
2018-08-11T14:34:27.189Z,3.67
2018-08-11T14:36:56.000Z,3.53
2018-08-11T14:39:24.775Z,3.10
2018-08-11T14:41:53.595Z,3.60
2018-08-11T14:44:22.657Z,3.43
2018-08-11T14:46:51.433Z,3.90
2018-08-11T14:49:20.212Z,3.40
2018-08-11T14:51:49.111Z,4.10
2018-08-11T14:54:17.922Z,3.53
2018-08-11T14:56:46.713Z,3.40
2018-08-11T14:59:15.673Z,3.30
2018-08-11T15:01:44.458Z,3.77
2018-08-11T15:04:13.221Z,3.80
2018-08-11T15:06:42.400Z,2.80
2018-08-11T15:09:11.513Z,3.30
2018-08-11T15:11:40.371Z,2.90
2018-08-11T15:14:09.466Z,3.37
2018-08-11T15:16:38.266Z,2.70
2018-08-11T15:19:06.661Z,3.07
2018-08-11T15:21:35.875Z,3.10
2018-08-11T15:24:04.701Z,3.00
2018-08-11T15:26:33.484Z,3.10
2018-08-11T15:29:02.724Z,3.03
2018-08-11T15:31:31.509Z,3.10
2018-08-11T15:34:00.289Z,2.80
2018-08-11T15:36:29.166Z,3.20
2018-08-11T15:38:57.959Z,3.57
2018-08-11T15:41:26.718Z,3.53
2018-08-11T15:43:55.512Z,3.40
2018-08-11T15:46:24.282Z,3.33
2018-08-11T15:48:53.153Z,3.17
2018-08-11T15:51:22.191Z,3.20
2018-08-11T15:53:50.984Z,3.47
2018-08-11T15:56:19.847Z,2.80
2018-08-11T15:58:48.774Z,3.90
2018-08-11T16:01:17.596Z,2.70
2018-08-11T16:03:46.366Z,3.77
2018-08-11T16:06:15.632Z,3.40
2018-08-11T16:08:44.421Z,3.60
2018-08-11T16:11:13.225Z,3.80
2018-08-11T16:13:42.072Z,7.27
2018-08-11T16:16:10.856Z,3.87
2018-08-11T16:18:39.819Z,3.10
2018-08-11T16:21:09.059Z,3.20
2018-08-11T16:23:37.875Z,3.77
2018-08-11T16:26:06.278Z,3.43
2018-08-11T16:28:35.201Z,3.27
2018-08-11T16:31:04.034Z,3.43
2018-08-11T16:33:32.818Z,3.90
2018-08-11T16:36:01.610Z,3.37
2018-08-11T16:38:30.389Z,3.53
2018-08-11T16:40:59.171Z,3.23
2018-08-11T16:43:28.005Z,3.80
2018-08-11T16:45:56.811Z,3.10
2018-08-11T16:48:25.693Z,3.03
2018-08-11T16:50:54.599Z,3.40
2018-08-11T16:53:23.553Z,3.70
2018-08-11T16:55:52.306Z,3.90
2018-08-11T16:58:21.126Z,3.30
2018-08-11T17:00:49.918Z,4.60
2018-08-11T17:03:18.717Z,4.20
2018-08-11T17:05:47.534Z,2.77
2018-08-11T17:08:16.321Z,3.80
2018-08-11T17:10:45.138Z,3.60
2018-08-11T17:13:13.921Z,3.30
2018-08-11T17:15:42.714Z,3.53
2018-08-11T17:18:11.503Z,3.67
2018-08-11T17:20:40.337Z,7.60
2018-08-11T17:23:09.070Z,3.30
2018-08-11T17:25:37.989Z,3.27
2018-08-11T17:28:07.616Z,3.90
2018-08-11T17:30:36.483Z,4.10
2018-08-11T17:33:05.579Z,4.60
2018-08-11T17:35:34.349Z,4.00
2018-08-11T17:38:03.139Z,7.93
2018-08-11T17:40:32.014Z,5.50
2018-08-11T17:43:00.823Z,4.30
2018-08-11T17:45:30.016Z,4.03
2018-08-11T17:47:58.858Z,3.97
2018-08-11T17:50:27.642Z,3.87
2018-08-11T17:52:56.424Z,3.83
2018-08-11T17:55:25.675Z,4.63
2018-08-11T17:57:54.898Z,7.97
2018-08-11T18:00:23.742Z,6.10
2018-08-11T18:02:52.560Z,7.63
2018-08-11T18:05:21.405Z,6.77
2018-08-11T18:07:50.257Z,4.60
2018-08-11T18:10:19.111Z,3.90
2018-08-11T18:12:47.909Z,4.97
2018-08-11T18:15:16.761Z,4.47
2018-08-11T18:17:45.796Z,6.93
2018-08-11T18:20:14.576Z,6.73
2018-08-11T18:22:44.157Z,8.27
2018-08-11T18:25:13.118Z,4.83
2018-08-11T18:27:42.003Z,5.27
2018-08-11T18:30:11.145Z,5.50
2018-08-11T18:32:40.203Z,5.10
2018-08-11T18:35:09.445Z,5.10
2018-08-11T18:37:38.263Z,6.70
2018-08-11T18:40:07.168Z,5.00
2018-08-11T18:42:35.962Z,7.20
2018-08-11T18:45:04.924Z,7.17
2018-08-11T18:47:33.797Z,6.50
2018-08-11T18:50:02.591Z,6.03
2018-08-11T18:52:31.418Z,4.70
2018-08-11T18:55:00.408Z,5.80
2018-08-11T18:57:29.280Z,5.80
2018-08-11T18:59:58.123Z,4.57
2018-08-11T19:02:27.026Z,7.17
2018-08-11T19:04:55.893Z,4.30
2018-08-11T19:07:24.719Z,4.83
2018-08-11T19:09:53.962Z,6.17
2018-08-11T19:12:22.785Z,7.20
2018-08-11T19:14:51.629Z,8.57
2018-08-11T19:17:20.635Z,7.63
2018-08-11T19:19:49.462Z,5.90
2018-08-11T19:22:18.229Z,6.47
2018-08-11T19:24:47.069Z,6.07
2018-08-11T19:27:15.451Z,4.70
2018-08-11T19:29:44.306Z,7.97
2018-08-11T19:32:13.287Z,8.10
2018-08-11T19:34:42.070Z,7.90
2018-08-11T19:37:10.870Z,5.80
2018-08-11T19:39:39.864Z,5.13
2018-08-11T19:42:08.795Z,4.47
2018-08-11T19:44:37.598Z,4.30
2018-08-11T19:47:06.506Z,6.10
2018-08-11T19:49:35.326Z,4.03
2018-08-11T19:52:04.185Z,4.53
2018-08-11T19:54:33.033Z,5.90
2018-08-11T19:57:01.858Z,7.00
2018-08-11T19:59:30.670Z,7.00
2018-08-11T20:01:59.614Z,4.47
2018-08-11T20:04:28.401Z,5.43
2018-08-11T20:06:57.219Z,5.07
2018-08-11T20:09:26.352Z,4.40
2018-08-11T20:11:55.312Z,4.63
2018-08-11T20:14:24.128Z,5.00
2018-08-11T20:16:53.433Z,6.57
2018-08-11T20:19:22.333Z,3.97
2018-08-11T20:21:51.093Z,4.27
2018-08-11T20:24:19.917Z,6.50
2018-08-11T20:26:48.726Z,5.40
2018-08-11T20:29:17.566Z,4.40
2018-08-11T20:31:46.397Z,3.90
2018-08-11T20:34:15.212Z,4.80
2018-08-11T20:36:44.048Z,7.73
2018-08-11T20:39:14.409Z,5.00
2018-08-11T20:41:43.258Z,4.23
2018-08-11T20:44:12.179Z,5.00
2018-08-11T20:46:41.061Z,4.83
2018-08-11T20:49:09.934Z,4.67
2018-08-11T20:51:38.795Z,5.10
2018-08-11T20:54:07.838Z,6.57
2018-08-11T20:56:36.694Z,4.47
2018-08-11T20:59:05.530Z,4.47
2018-08-11T21:01:34.684Z,5.63
2018-08-11T21:04:03.601Z,7.10
2018-08-11T21:06:32.410Z,3.87
2018-08-11T21:09:01.340Z,5.50
2018-08-11T21:11:30.246Z,7.27
2018-08-11T21:13:59.080Z,3.97
2018-08-11T21:16:28.122Z,4.80
2018-08-11T21:18:56.986Z,3.67
2018-08-11T21:21:25.787Z,6.47
2018-08-11T21:23:54.852Z,3.67
2018-08-11T21:26:23.663Z,4.00
2018-08-11T21:28:52.462Z,3.97
2018-08-11T21:31:21.352Z,4.00
2018-08-11T21:33:50.163Z,3.70
2018-08-11T21:36:19.141Z,6.63
2018-08-11T21:38:47.777Z,3.57
2018-08-11T21:41:16.585Z,4.70
2018-08-11T21:43:46.280Z,4.83
2018-08-11T21:46:15.188Z,3.97
2018-08-11T21:48:44.035Z,4.50
2018-08-11T21:51:12.898Z,4.00
2018-08-11T22:00:33.435Z,3.33
2018-08-11T22:03:02.510Z,5.03
2018-08-11T22:05:31.427Z,3.80
2018-08-11T22:08:01.410Z,5.10
2018-08-11T22:10:30.655Z,3.50
2018-08-11T22:12:59.438Z,3.90
2018-08-11T22:15:28.323Z,3.33
2018-08-11T22:17:57.205Z,4.07
2018-08-11T22:20:26.018Z,4.00
2018-08-11T22:22:55.058Z,5.60
2018-08-11T22:25:23.922Z,3.27
2018-08-11T22:27:52.773Z,5.50
2018-08-11T22:30:21.631Z,3.90
2018-08-11T22:32:50.489Z,4.07
2018-08-11T22:35:19.386Z,5.13
2018-08-11T22:37:48.412Z,5.20
2018-08-11T22:40:17.262Z,3.97
2018-08-11T22:42:46.082Z,3.30
2018-08-11T22:45:14.933Z,3.30
2018-08-11T22:47:43.742Z,3.40
2018-08-11T22:50:13.938Z,6.00
2018-08-11T22:52:42.981Z,3.73
2018-08-11T22:55:11.829Z,5.03
2018-08-11T22:57:40.672Z,5.50
2018-08-11T23:00:13.682Z,6.70
2018-08-11T23:02:42.784Z,6.40
2018-08-11T23:05:11.984Z,4.17
2018-08-11T23:07:41.566Z,3.97
2018-08-11T23:10:12.632Z,4.60
2018-08-11T23:12:42.661Z,3.70
2018-08-11T23:15:19.251Z,3.30
2018-08-11T23:17:50.252Z,3.73
2018-08-11T23:20:19.080Z,3.73
2018-08-11T23:22:47.900Z,3.73
2018-08-11T23:25:17.085Z,4.10
2018-08-11T23:27:46.003Z,3.80
2018-08-11T23:30:16.520Z,3.40
2018-08-11T23:32:45.661Z,4.67
2018-08-11T23:35:15.027Z,5.90
2018-08-11T23:37:43.855Z,3.70
2018-08-11T23:40:12.733Z,4.37
2018-08-11T23:42:42.134Z,4.70
2018-08-11T23:45:13.367Z,4.30
2018-08-11T23:47:42.575Z,4.07
2018-08-11T23:50:12.441Z,3.70
2018-08-11T23:52:42.191Z,3.50
2018-08-11T23:55:11.987Z,5.53
2018-08-11T23:57:40.883Z,4.90
